createdAt,value
2022-10-24T00:01:18.836Z,100393.01
2022-10-24T00:03:51.633Z,100395.66
2022-10-24T00:06:24.905Z,100400.40
2022-10-24T00:08:57.553Z,100388.09
2022-10-24T00:11:30.971Z,100385.94
2022-10-24T00:14:04.235Z,100388.17
2022-10-24T00:16:36.959Z,100390.09
2022-10-24T00:19:09.155Z,100389.30
2022-10-24T00:21:41.260Z,100382.73
2022-10-24T00:24:13.880Z,100383.87
2022-10-24T00:26:45.900Z,100380.41
2022-10-24T00:29:18.009Z,100382.18
2022-10-24T00:31:50.437Z,100384.19
2022-10-24T00:34:22.482Z,100388.99
2022-10-24T00:36:54.379Z,100395.55
2022-10-24T00:39:27.446Z,100387.71
2022-10-24T00:41:59.946Z,100380.24
2022-10-24T00:44:34.787Z,100383.45
2022-10-24T00:47:12.230Z,100378.27
2022-10-24T00:49:49.700Z,100371.05
2022-10-24T00:52:25.593Z,100394.98
2022-10-24T00:55:00.145Z,100391.71
2022-10-24T00:57:36.676Z,100382.03
2022-10-24T01:00:12.702Z,100369.70
2022-10-24T01:02:45.945Z,100362.83
2022-10-24T01:05:20.143Z,100360.98
2022-10-24T01:08:02.509Z,100354.90
2022-10-24T01:10:45.561Z,100346.66
2022-10-24T01:13:28.018Z,100342.90
2022-10-24T01:16:06.380Z,100333.20
2022-10-24T01:18:44.190Z,100328.98
2022-10-24T01:21:29.966Z,100308.97
2022-10-24T01:24:27.731Z,100309.69
2022-10-24T01:27:35.390Z,100321.52
2022-10-24T01:30:10.492Z,100322.47
2022-10-24T01:32:55.863Z,100315.35
2022-10-24T01:35:45.333Z,100313.28
2022-10-24T01:38:22.793Z,100310.15
2022-10-24T01:41:02.083Z,100302.23
2022-10-24T01:43:38.663Z,100301.27
2022-10-24T01:46:14.238Z,100302.71
2022-10-24T01:48:48.962Z,100292.70
2022-10-24T01:51:24.802Z,100283.75
2022-10-24T01:53:58.291Z,100279.33
2022-10-24T01:56:30.473Z,100281.09
2022-10-24T01:59:09.507Z,100285.02
2022-10-24T02:01:41.933Z,100294.06
2022-10-24T02:04:15.363Z,100297.89
2022-10-24T02:06:49.461Z,100308.55
2022-10-24T02:09:22.857Z,100310.95
2022-10-24T02:11:57.770Z,100317.69
2022-10-24T02:14:31.764Z,100315.86
2022-10-24T02:17:05.485Z,100306.25
2022-10-24T02:19:38.520Z,100312.32
2022-10-24T02:22:25.647Z,100317.29
2022-10-24T02:25:02.829Z,100317.44
2022-10-24T02:27:40.785Z,100314.33
2022-10-24T02:30:17.666Z,100321.38
2022-10-24T02:32:52.796Z,100322.90
2022-10-24T02:35:28.752Z,100318.56
2022-10-24T02:38:04.283Z,100315.29
2022-10-24T02:40:37.006Z,100311.45
2022-10-24T02:43:10.781Z,100305.85
2022-10-24T02:45:42.853Z,100306.73
2022-10-24T02:48:19.918Z,100296.81
2022-10-24T02:50:52.417Z,100277.70
2022-10-24T02:53:27.349Z,100237.14
2022-10-24T02:55:59.074Z,100177.95
2022-10-24T02:58:31.020Z,100185.45
2022-10-24T03:01:04.671Z,100212.09
2022-10-24T03:03:36.862Z,100230.98
2022-10-24T03:06:10.961Z,100245.05
2022-10-24T03:08:43.459Z,100255.60
2022-10-24T03:11:15.559Z,100262.79
2022-10-24T03:13:47.715Z,100257.21
2022-10-24T03:16:20.231Z,100254.98
2022-10-24T03:18:52.723Z,100261.85
2022-10-24T03:21:26.147Z,100271.22
2022-10-24T03:23:58.406Z,100269.61
2022-10-24T03:26:30.650Z,100268.02
2022-10-24T03:29:02.939Z,100258.89
2022-10-24T03:31:34.964Z,100257.69
2022-10-24T03:34:07.102Z,100258.73
2022-10-24T03:36:39.473Z,100262.17
2022-10-24T03:39:11.471Z,100260.98
2022-10-24T03:41:43.592Z,100265.45
2022-10-24T03:44:15.705Z,100264.34
2022-10-24T03:46:48.018Z,100257.94
2022-10-24T03:49:20.221Z,100260.25
2022-10-24T03:51:52.678Z,100260.73
2022-10-24T03:54:24.998Z,100261.52
2022-10-24T03:56:57.906Z,100254.50
2022-10-24T03:59:30.523Z,100258.81
2022-10-24T04:02:03.170Z,100254.33
2022-10-24T04:04:36.259Z,100246.72
2022-10-24T04:07:08.392Z,100236.89
2022-10-24T04:09:40.685Z,100241.69
2022-10-24T04:12:12.921Z,100239.45
2022-10-24T04:14:44.980Z,100248.73
2022-10-24T04:17:17.088Z,100241.53
2022-10-24T04:19:49.312Z,100262.01
2022-10-24T04:22:21.904Z,100257.44
2022-10-24T04:24:53.941Z,100243.44
2022-10-24T04:27:26.116Z,100253.36
2022-10-24T04:29:58.009Z,100260.41
2022-10-24T04:32:30.853Z,100259.92
2022-10-24T04:35:04.304Z,100260.89
2022-10-24T04:37:36.399Z,100259.36
2022-10-24T04:40:10.218Z,100257.92
2022-10-24T04:42:42.366Z,100241.30
2022-10-24T04:45:14.859Z,100260.41
2022-10-24T04:47:47.471Z,100254.27
2022-10-24T04:50:20.281Z,100254.27
2022-10-24T04:52:52.529Z,100263.23
2022-10-24T04:55:24.604Z,100264.26
2022-10-24T04:57:58.209Z,100275.19
2022-10-24T05:00:30.902Z,100273.52
2022-10-24T05:03:03.230Z,100279.75
2022-10-24T05:05:35.226Z,100280.54
2022-10-24T05:08:08.047Z,100281.19
2022-10-24T05:10:40.238Z,100279.52
2022-10-24T05:13:12.383Z,100281.27
2022-10-24T05:15:44.834Z,100275.35
2022-10-24T05:18:17.373Z,100277.34
2022-10-24T05:20:50.023Z,100277.98
2022-10-24T05:23:22.301Z,100272.55
2022-10-24T05:25:54.781Z,100265.83
2022-10-24T05:28:29.419Z,100278.47
2022-10-24T05:31:02.657Z,100279.66
2022-10-24T05:33:34.785Z,100277.83
2022-10-24T05:36:07.850Z,100272.38
2022-10-24T05:38:40.243Z,100271.02
2022-10-24T05:41:12.795Z,100269.67
2022-10-24T05:43:44.897Z,100269.83
2022-10-24T05:46:16.987Z,100278.70
2022-10-24T05:48:48.919Z,100278.93
2022-10-24T05:51:21.152Z,100277.90
2022-10-24T05:53:53.388Z,100277.09
2022-10-24T05:56:27.860Z,100274.14
2022-10-24T05:59:01.240Z,100276.45
2022-10-24T06:01:33.485Z,100273.50
2022-10-24T06:04:07.844Z,100271.73
2022-10-24T06:06:44.380Z,100273.10
2022-10-24T06:09:16.884Z,100276.54
2022-10-24T06:11:49.008Z,100281.41
2022-10-24T06:14:21.792Z,100275.64
2022-10-24T06:16:53.878Z,100290.04
2022-10-24T06:19:25.854Z,100283.71
2022-10-24T06:21:58.054Z,100280.13
2022-10-24T06:24:30.266Z,100263.72
2022-10-24T06:27:02.992Z,100274.94
2022-10-24T06:29:35.737Z,100276.05
2022-10-24T06:32:07.927Z,100275.32
2022-10-24T06:34:40.116Z,100274.77
2022-10-24T06:37:12.418Z,100282.04
2022-10-24T06:39:44.862Z,100286.13
2022-10-24T06:42:17.259Z,100291.40
2022-10-24T06:44:51.419Z,100291.64
2022-10-24T06:47:23.758Z,100291.56
2022-10-24T06:49:55.776Z,100292.61
2022-10-24T06:52:28.015Z,100292.45
2022-10-24T06:55:00.630Z,100284.13
2022-10-24T06:57:32.659Z,100299.17
2022-10-24T07:00:05.125Z,100302.14
2022-10-24T07:02:38.092Z,100301.89
2022-10-24T07:05:12.884Z,100297.59
2022-10-24T07:07:44.228Z,100299.42
2022-10-24T07:10:17.126Z,100298.31
2022-10-24T07:12:49.136Z,100299.73
2022-10-24T07:15:21.121Z,100295.13
2022-10-24T07:17:53.099Z,100297.92
2022-10-24T07:20:25.461Z,100296.39
2022-10-24T07:22:57.650Z,100297.92
2022-10-24T07:25:29.906Z,100299.30
2022-10-24T07:28:01.878Z,100297.93
2022-10-24T07:30:34.138Z,100299.14
2022-10-24T07:33:06.787Z,100292.66
2022-10-24T07:35:44.117Z,100298.48
2022-10-24T07:38:18.596Z,100293.21
2022-10-24T07:40:52.085Z,100292.25
2022-10-24T07:43:24.937Z,100300.02
2022-10-24T07:45:57.081Z,100303.46
2022-10-24T07:48:29.198Z,100302.17
2022-10-24T07:51:01.321Z,100303.86
2022-10-24T07:53:33.418Z,100300.41
2022-10-24T07:56:10.667Z,100298.41
2022-10-24T07:58:43.435Z,100293.22
2022-10-24T08:01:17.237Z,100294.00
2022-10-24T08:03:49.675Z,100294.48
2022-10-24T08:06:24.617Z,100304.33
2022-10-24T08:08:56.752Z,100312.57
2022-10-24T08:11:30.157Z,100311.36
2022-10-24T08:14:03.370Z,100300.08
2022-10-24T08:16:35.690Z,100288.54
2022-10-24T08:19:07.732Z,100288.88
2022-10-24T08:21:39.775Z,100288.55
2022-10-24T08:24:12.110Z,100294.05
2022-10-24T08:26:44.411Z,100291.17
2022-10-24T08:29:22.290Z,100288.52
2022-10-24T08:31:55.911Z,100293.42
2022-10-24T08:34:27.910Z,100280.77
2022-10-24T08:36:59.954Z,100295.92
2022-10-24T08:39:32.058Z,100299.77
2022-10-24T08:42:08.237Z,100300.19
2022-10-24T08:44:42.604Z,100288.86
2022-10-24T08:47:27.809Z,100293.23
2022-10-24T08:50:05.955Z,100303.94
2022-10-24T08:52:43.852Z,100308.35
2022-10-24T08:55:30.812Z,100313.64
2022-10-24T08:58:17.586Z,100312.58
2022-10-24T09:00:54.131Z,100299.71
2022-10-24T09:03:51.278Z,100306.71
2022-10-24T09:06:27.534Z,100305.34
2022-10-24T09:08:59.671Z,100306.14
2022-10-24T09:11:41.766Z,100306.38
2022-10-24T09:14:18.791Z,100300.56
2022-10-24T09:16:55.743Z,100301.05
2022-10-24T09:19:30.318Z,100306.60
2022-10-24T09:22:03.651Z,100307.73
2022-10-24T09:24:42.646Z,100310.65
2022-10-24T09:30:00.295Z,100300.34
2022-10-24T09:32:36.986Z,100287.50
2022-10-24T09:35:17.233Z,100304.16
2022-10-24T09:37:51.344Z,100311.89
2022-10-24T09:40:26.640Z,100310.98
2022-10-24T09:43:17.359Z,100312.92
2022-10-24T09:45:52.376Z,100320.67
2022-10-24T09:48:30.764Z,100323.80
2022-10-24T09:51:03.464Z,100330.66
2022-10-24T09:53:39.339Z,100333.89
2022-10-24T09:56:14.309Z,100331.55
2022-10-24T09:58:47.006Z,100325.95
2022-10-24T10:01:23.917Z,100324.05
2022-10-24T10:04:10.067Z,100323.79
2022-10-24T10:06:47.062Z,100318.23
2022-10-24T10:09:35.802Z,100314.37
2022-10-24T10:12:25.610Z,100308.34
2022-10-24T10:14:57.772Z,100310.42
2022-10-24T10:17:31.430Z,100310.32
2022-10-24T10:20:03.448Z,100315.05
2022-10-24T10:22:35.678Z,100313.64
2022-10-24T10:25:28.747Z,100317.45
2022-10-24T10:28:03.115Z,100311.16
2022-10-24T10:30:35.772Z,100312.98
2022-10-24T10:33:19.039Z,100310.36
2022-10-24T10:36:02.004Z,100303.98
2022-10-24T10:38:45.779Z,100299.46
2022-10-24T10:41:29.958Z,100291.07
2022-10-24T10:44:18.180Z,100273.83
2022-10-24T10:47:01.196Z,100291.11
2022-10-24T10:49:39.995Z,100291.95
2022-10-24T10:52:19.393Z,100305.02
2022-10-24T10:55:11.260Z,100302.77
2022-10-24T10:57:53.484Z,100298.00
2022-10-24T11:00:32.571Z,100293.98
2022-10-24T11:03:18.201Z,100306.43
2022-10-24T11:05:59.631Z,100298.53
2022-10-24T11:08:48.003Z,100300.11
2022-10-24T11:11:26.094Z,100298.97
2022-10-24T11:14:02.790Z,100297.21
2022-10-24T11:16:36.962Z,100292.86
2022-10-24T11:19:22.065Z,100292.73
2022-10-24T11:21:56.916Z,100296.41
2022-10-24T11:24:33.724Z,100298.74
2022-10-24T11:27:12.315Z,100290.04
2022-10-24T11:29:50.113Z,100294.83
2022-10-24T11:32:28.335Z,100292.85
2022-10-24T11:35:07.143Z,100289.02
2022-10-24T11:37:43.157Z,100281.34
2022-10-24T11:40:20.612Z,100274.60
2022-10-24T11:42:57.227Z,100275.23
2022-10-24T11:45:34.509Z,100283.16
2022-10-24T11:48:13.685Z,100278.46
2022-10-24T11:50:50.974Z,100270.40
2022-10-24T11:53:40.252Z,100271.28
2022-10-24T11:56:23.476Z,100269.16
2022-10-24T11:59:01.792Z,100270.81
2022-10-24T12:01:59.872Z,100270.64
2022-10-24T12:05:09.351Z,100261.19
2022-10-24T12:08:14.172Z,100257.30
2022-10-24T12:11:30.177Z,100259.19
2022-10-24T12:14:34.534Z,100258.61
2022-10-24T12:17:31.920Z,100256.40
2022-10-24T12:20:07.004Z,100251.30
2022-10-24T12:22:42.763Z,100247.66
2022-10-24T12:25:29.103Z,100249.36
2022-10-24T12:28:03.319Z,100248.67
2022-10-24T12:30:37.270Z,100245.13
2022-10-24T12:33:25.277Z,100240.58
2022-10-24T12:35:58.867Z,100238.34
2022-10-24T12:39:08.438Z,100235.27
2022-10-24T12:41:43.610Z,100225.80
2022-10-24T12:44:46.532Z,100222.52
2022-10-24T12:47:41.743Z,100219.58
2022-10-24T12:51:03.536Z,100214.75
2022-10-24T12:54:02.286Z,100214.99
2022-10-24T12:56:35.251Z,100216.14
2022-10-24T12:59:21.030Z,100209.14
2022-10-24T13:02:14.483Z,100207.62
2022-10-24T13:05:03.703Z,100210.86
2022-10-24T13:07:54.132Z,100212.80
2022-10-24T13:10:40.148Z,100214.27
2022-10-24T13:13:30.551Z,100199.36
2022-10-24T13:16:15.783Z,100213.59
2022-10-24T13:19:02.131Z,100209.67
2022-10-24T13:21:36.740Z,100208.60
2022-10-24T13:24:25.704Z,100204.22
2022-10-24T13:27:26.438Z,100203.98
2022-10-24T13:30:19.723Z,100204.56
2022-10-24T13:32:52.002Z,100203.42
2022-10-24T13:35:27.342Z,100202.66
2022-10-24T13:38:04.762Z,100207.16
2022-10-24T13:40:42.968Z,100208.81
2022-10-24T13:43:19.661Z,100207.23
2022-10-24T13:46:01.182Z,100207.30
2022-10-24T13:48:37.970Z,100211.66
2022-10-24T13:51:18.857Z,100216.34
2022-10-24T13:53:55.964Z,100218.83
2022-10-24T13:56:28.880Z,100222.52
2022-10-24T13:59:01.173Z,100213.82
2022-10-24T14:01:36.405Z,100224.41
2022-10-24T14:04:10.501Z,100224.06
2022-10-24T14:06:43.681Z,100209.79
2022-10-24T14:09:16.109Z,100195.33
2022-10-24T14:11:49.762Z,100204.05
2022-10-24T14:14:30.730Z,100207.07
2022-10-24T14:17:23.038Z,100202.57
2022-10-24T14:20:01.521Z,100205.77
2022-10-24T14:22:40.139Z,100205.58
2022-10-24T14:25:27.289Z,100213.85
2022-10-24T14:28:01.997Z,100218.73
2022-10-24T14:30:35.154Z,100220.87
2022-10-24T14:33:26.135Z,100218.62
2022-10-24T14:36:01.379Z,100218.76
2022-10-24T14:38:34.202Z,100216.98
2022-10-24T14:41:10.352Z,100212.58
2022-10-24T14:43:48.778Z,100218.05
2022-10-24T14:46:34.374Z,100216.29
2022-10-24T14:49:23.328Z,100219.59
2022-10-24T14:51:57.390Z,100221.65
2022-10-24T14:54:32.315Z,100223.64
2022-10-24T14:57:10.281Z,100228.89
2022-10-24T14:59:47.912Z,100218.38
2022-10-24T15:02:25.202Z,100227.10
2022-10-24T15:05:16.941Z,100222.69
2022-10-24T15:08:09.148Z,100208.58
2022-10-24T15:10:44.057Z,100223.35
2022-10-24T15:13:21.340Z,100224.14
2022-10-24T15:15:56.400Z,100225.86
2022-10-24T15:18:30.732Z,100223.53
2022-10-24T15:21:07.431Z,100223.34
2022-10-24T15:23:47.679Z,100224.67
2022-10-24T15:26:26.596Z,100222.02
2022-10-24T15:29:07.612Z,100220.04
2022-10-24T15:31:42.570Z,100222.11
2022-10-24T15:34:17.934Z,100215.66
2022-10-24T15:36:53.513Z,100231.14
2022-10-24T15:39:26.935Z,100230.18
2022-10-24T15:42:00.178Z,100225.79
2022-10-24T15:44:33.789Z,100230.58
2022-10-24T15:47:08.065Z,100228.64
2022-10-24T15:49:41.229Z,100229.81
2022-10-24T15:52:17.875Z,100225.71
2022-10-24T15:54:49.965Z,100224.46
2022-10-24T15:57:21.943Z,100225.92
2022-10-24T15:59:54.033Z,100231.81
2022-10-24T16:02:26.487Z,100236.41
2022-10-24T16:04:59.077Z,100233.20
2022-10-24T16:07:31.101Z,100232.84
2022-10-24T16:10:03.336Z,100232.75
2022-10-24T16:12:35.442Z,100232.30
2022-10-24T16:15:14.161Z,100235.30
2022-10-24T16:17:46.951Z,100235.46
2022-10-24T16:20:20.126Z,100236.95
2022-10-24T16:22:52.780Z,100242.64
2022-10-24T16:25:28.400Z,100243.09
2022-10-24T16:28:01.171Z,100248.49
2022-10-24T16:30:35.968Z,100252.02
2022-10-24T16:33:06.729Z,100258.13
2022-10-24T16:35:40.728Z,100258.65
2022-10-24T16:38:13.938Z,100242.69
2022-10-24T16:40:48.499Z,100262.52
2022-10-24T16:43:21.925Z,100264.39
2022-10-24T16:46:02.147Z,100253.80
2022-10-24T16:48:34.523Z,100263.30
2022-10-24T16:51:12.779Z,100260.56
2022-10-24T16:53:45.488Z,100262.48
2022-10-24T16:56:17.911Z,100258.70
2022-10-24T16:58:50.135Z,100255.20
2022-10-24T17:01:23.546Z,100258.33
2022-10-24T17:03:56.090Z,100259.61
2022-10-24T17:06:28.267Z,100265.93
2022-10-24T17:09:00.591Z,100268.42
2022-10-24T17:11:44.804Z,100269.19
2022-10-24T17:14:17.638Z,100273.27
2022-10-24T17:16:50.641Z,100267.41
2022-10-24T17:19:23.273Z,100265.60
2022-10-24T17:21:55.907Z,100264.82
2022-10-24T17:24:29.074Z,100263.35
2022-10-24T17:27:01.682Z,100268.83
2022-10-24T17:29:35.675Z,100268.33
2022-10-24T17:32:09.231Z,100272.42
2022-10-24T17:34:43.279Z,100255.21
2022-10-24T17:37:23.180Z,100265.52
2022-10-24T17:40:00.240Z,100261.98
2022-10-24T17:42:33.539Z,100258.39
2022-10-24T17:45:07.663Z,100261.24
2022-10-24T17:47:41.023Z,100261.66
2022-10-24T17:50:14.393Z,100261.60
2022-10-24T17:52:51.151Z,100257.96
2022-10-24T17:55:46.200Z,100261.83
2022-10-24T17:58:19.494Z,100261.23
2022-10-24T18:00:52.859Z,100264.56
2022-10-24T18:03:28.884Z,100270.63
2022-10-24T18:06:12.566Z,100267.45
2022-10-24T18:08:48.010Z,100272.83
2022-10-24T18:11:21.441Z,100280.48
2022-10-24T18:13:55.676Z,100286.11
2022-10-24T18:16:30.654Z,100292.81
2022-10-24T18:19:04.434Z,100294.23
2022-10-24T18:21:38.053Z,100295.14
2022-10-24T18:24:11.899Z,100294.63
2022-10-24T18:26:46.815Z,100293.05
2022-10-24T18:29:20.213Z,100291.74
2022-10-24T18:31:53.931Z,100289.41
2022-10-24T18:34:28.817Z,100283.60
2022-10-24T18:37:03.177Z,100282.91
2022-10-24T18:39:36.514Z,100280.90
2022-10-24T18:42:19.218Z,100281.37
2022-10-24T18:44:54.392Z,100279.84
2022-10-24T18:47:30.278Z,100279.86
2022-10-24T18:50:06.115Z,100279.29
2022-10-24T18:52:50.155Z,100282.35
2022-10-24T18:55:27.369Z,100286.88
2022-10-24T18:58:02.229Z,100279.30
2022-10-24T19:00:38.602Z,100293.05
2022-10-24T19:03:25.158Z,100293.79
2022-10-24T19:06:06.568Z,100298.46
2022-10-24T19:08:40.470Z,100300.13
2022-10-24T19:11:15.614Z,100295.48
2022-10-24T19:13:50.059Z,100297.83
2022-10-24T19:16:30.147Z,100296.52
2022-10-24T19:19:07.950Z,100300.29
2022-10-24T19:21:43.514Z,100286.42
2022-10-24T19:24:20.455Z,100295.13
2022-10-24T19:26:55.871Z,100295.02
2022-10-24T19:29:29.755Z,100296.13
2022-10-24T19:32:03.891Z,100291.98
2022-10-24T19:34:38.310Z,100290.77
2022-10-24T19:37:13.072Z,100290.32
2022-10-24T19:39:47.102Z,100292.94
2022-10-24T19:42:22.693Z,100280.75
2022-10-24T19:44:56.902Z,100292.98
2022-10-24T19:47:30.732Z,100292.47
2022-10-24T19:50:05.648Z,100290.44
2022-10-24T19:52:40.240Z,100291.73
2022-10-24T19:55:15.924Z,100288.71
2022-10-24T19:57:50.135Z,100277.48
2022-10-24T20:00:23.486Z,100294.05
2022-10-24T20:02:56.088Z,100297.73
2022-10-24T20:05:28.630Z,100300.39
2022-10-24T20:08:01.201Z,100303.23
2022-10-24T20:10:33.315Z,100302.48
2022-10-24T20:13:05.596Z,100303.51
2022-10-24T20:15:37.663Z,100309.27
2022-10-24T20:18:09.770Z,100308.65
2022-10-24T20:20:43.388Z,100305.42
2022-10-24T20:23:15.850Z,100303.36
2022-10-24T20:25:48.907Z,100305.89
2022-10-24T20:28:20.979Z,100311.31
2022-10-24T20:30:53.147Z,100312.05
2022-10-24T20:33:25.226Z,100309.97
2022-10-24T20:36:00.838Z,100308.05
2022-10-24T20:38:35.374Z,100311.87
2022-10-24T20:41:07.592Z,100315.91
2022-10-24T20:43:40.053Z,100316.61
2022-10-24T20:46:12.804Z,100321.19
2022-10-24T20:48:45.771Z,100318.82
2022-10-24T20:51:20.496Z,100321.95
2022-10-24T20:53:51.235Z,100324.16
2022-10-24T20:56:26.170Z,100326.47
2022-10-24T20:58:56.829Z,100329.64
2022-10-24T21:01:30.302Z,100329.44
2022-10-24T21:04:02.594Z,100328.96
2022-10-24T21:06:36.012Z,100332.70
2022-10-24T21:09:09.405Z,100336.33
2022-10-24T21:11:42.077Z,100332.98
2022-10-24T21:14:17.441Z,100333.08
2022-10-24T21:16:48.537Z,100340.21
2022-10-24T21:19:20.509Z,100341.91
2022-10-24T21:21:52.681Z,100350.11
2022-10-24T21:24:25.001Z,100345.00
2022-10-24T21:26:57.315Z,100341.30
2022-10-24T21:29:34.230Z,100346.44
2022-10-24T21:32:07.370Z,100345.48
2022-10-24T21:34:39.421Z,100349.23
2022-10-24T21:37:11.409Z,100337.40
2022-10-24T21:39:43.466Z,100336.88
2022-10-24T21:42:16.456Z,100345.92
2022-10-24T21:44:48.581Z,100344.39
2022-10-24T21:47:20.558Z,100334.86
2022-10-24T21:49:53.056Z,100349.71
2022-10-24T21:52:25.358Z,100349.85
2022-10-24T21:54:57.600Z,100349.74
2022-10-24T21:57:30.858Z,100352.98
2022-10-24T22:00:03.058Z,100353.95
2022-10-24T22:02:40.475Z,100351.20
2022-10-24T22:05:13.247Z,100353.34
2022-10-24T22:07:47.604Z,100352.54
2022-10-24T22:10:21.579Z,100354.92
2022-10-24T22:12:53.537Z,100354.96
2022-10-24T22:15:25.605Z,100351.95
2022-10-24T22:17:57.685Z,100354.27
2022-10-24T22:20:29.881Z,100357.48
2022-10-24T22:23:01.909Z,100358.02
2022-10-24T22:25:34.008Z,100364.80
2022-10-24T22:28:08.079Z,100364.32
2022-10-24T22:30:46.232Z,100369.52
2022-10-24T22:33:23.111Z,100373.70
2022-10-24T22:36:01.183Z,100374.73
2022-10-24T22:38:33.831Z,100378.05
2022-10-24T22:41:07.166Z,100376.06
2022-10-24T22:43:39.974Z,100378.28
2022-10-24T22:46:25.362Z,100375.38
2022-10-24T22:49:02.879Z,100373.61
2022-10-24T22:51:35.861Z,100374.84
2022-10-24T22:54:10.887Z,100375.66
2022-10-24T22:56:44.764Z,100374.45
2022-10-24T22:59:17.717Z,100375.52
2022-10-24T23:02:00.946Z,100376.58
2022-10-24T23:04:42.604Z,100375.77
2022-10-24T23:07:27.367Z,100377.73
2022-10-24T23:10:00.775Z,100377.92
2022-10-24T23:12:33.913Z,100380.98
2022-10-24T23:15:07.316Z,100382.42
2022-10-24T23:17:40.265Z,100379.31
2022-10-24T23:20:22.937Z,100381.43
2022-10-24T23:23:09.043Z,100380.86
2022-10-24T23:26:03.452Z,100371.84
2022-10-24T23:28:44.056Z,100373.48
2022-10-24T23:31:16.859Z,100374.11
2022-10-24T23:33:49.655Z,100374.77
2022-10-24T23:36:26.412Z,100370.93
2022-10-24T23:39:01.027Z,100377.83
2022-10-24T23:41:33.980Z,100363.94
2022-10-24T23:44:07.214Z,100363.64
2022-10-24T23:46:45.994Z,100377.48
2022-10-24T23:49:28.260Z,100379.73
2022-10-24T23:52:11.738Z,100380.34
2022-10-24T23:54:47.926Z,100375.46
2022-10-24T23:57:22.005Z,100373.63
2022-10-24T23:59:54.124Z,100380.44
